sensor_id;sensor_type;location;lat;lon;timestamp;temperature;humidity
2957;DHT22;1488;51.548;7.222;2023-04-01T13:45:08;20.70;81.20
2957;DHT22;1488;51.548;7.222;2023-04-01T13:47:54;20.70;81.70
2957;DHT22;1488;51.548;7.222;2023-04-01T13:50:37;20.70;81.70
2957;DHT22;1488;51.548;7.222;2023-04-01T13:53:21;20.70;81.90
2957;DHT22;1488;51.548;7.222;2023-04-01T13:56:02;20.70;81.80
2957;DHT22;1488;51.548;7.222;2023-04-01T13:59:02;20.70;81.10
2957;DHT22;1488;51.548;7.222;2023-04-01T14:01:39;20.70;81.10
2957;DHT22;1488;51.548;7.222;2023-04-01T15:47:07;20.70;86.60
2957;DHT22;1488;51.548;7.222;2023-04-01T15:49:55;20.70;86.20
2957;DHT22;1488;51.548;7.222;2023-04-01T15:52:23;20.70;85.70
2957;DHT22;1488;51.548;7.222;2023-04-01T15:55:24;20.70;85.80
2957;DHT22;1488;51.548;7.222;2023-04-01T15:58:06;20.70;85.90
2957;DHT22;1488;51.548;7.222;2023-04-01T16:00:47;20.70;85.70
2957;DHT22;1488;51.548;7.222;2023-04-01T16:03:37;20.70;85.20
2957;DHT22;1488;51.548;7.222;2023-04-01T16:06:18;20.70;85.40
2957;DHT22;1488;51.548;7.222;2023-04-01T16:09:09;20.70;85.40
2957;DHT22;1488;51.548;7.222;2023-04-01T16:11:45;20.70;85.20
2957;DHT22;1488;51.548;7.222;2023-04-01T16:14:23;20.70;85.10
2957;DHT22;1488;51.548;7.222;2023-04-01T16:17:05;20.70;85.70
2957;DHT22;1488;51.548;7.222;2023-04-01T16:19:48;20.70;84.00
2957;DHT22;1488;51.548;7.222;2023-04-01T16:22:21;20.70;84.10
2957;DHT22;1488;51.548;7.222;2023-04-01T16:24:55;20.70;84.30
2957;DHT22;1488;51.548;7.222;2023-04-01T16:27:29;20.90;84.50
2957;DHT22;1488;51.548;7.222;2023-04-01T16:30:00;20.70;84.10
2957;DHT22;1488;51.548;7.222;2023-04-01T16:32:43;20.70;83.90
2957;DHT22;1488;51.548;7.222;2023-04-01T16:35:25;20.60;83.70
2957;DHT22;1488;51.548;7.222;2023-04-01T16:38:03;20.60;83.70
2957;DHT22;1488;51.548;7.222;2023-04-01T16:40:43;20.70;83.40
2957;DHT22;1488;51.548;7.222;2023-04-01T16:43:16;20.70;83.30
2957;DHT22;1488;51.548;7.222;2023-04-01T16:45:53;20.70;83.30
2957;DHT22;1488;51.548;7.222;2023-04-01T16:48:23;20.60;83.50
2957;DHT22;1488;51.548;7.222;2023-04-01T16:50:59;20.60;83.50
2957;DHT22;1488;51.548;7.222;2023-04-01T16:53:35;20.60;83.60
2957;DHT22;1488;51.548;7.222;2023-04-01T16:56:10;20.60;83.60
2957;DHT22;1488;51.548;7.222;2023-04-01T16:58:42;20.80;84.00
2957;DHT22;1488;51.548;7.222;2023-04-01T17:01:13;20.60;83.80
2957;DHT22;1488;51.548;7.222;2023-04-01T17:03:44;20.60;83.90
2957;DHT22;1488;51.548;7.222;2023-04-01T17:06:19;20.60;83.90
2957;DHT22;1488;51.548;7.222;2023-04-01T17:09:07;20.60;83.60
2957;DHT22;1488;51.548;7.222;2023-04-01T17:11:40;20.70;83.90
2957;DHT22;1488;51.548;7.222;2023-04-01T17:14:17;20.60;83.80
2957;DHT22;1488;51.548;7.222;2023-04-01T17:17:09;20.60;83.90
2957;DHT22;1488;51.548;7.222;2023-04-01T17:19:47;20.60;83.90
2957;DHT22;1488;51.548;7.222;2023-04-01T17:22:25;20.60;83.70
2957;DHT22;1488;51.548;7.222;2023-04-01T17:25:08;20.60;83.40
2957;DHT22;1488;51.548;7.222;2023-04-01T17:27:46;20.60;83.60
2957;DHT22;1488;51.548;7.222;2023-04-01T17:30:25;20.60;83.70
2957;DHT22;1488;51.548;7.222;2023-04-01T17:33:35;20.50;83.40
2957;DHT22;1488;51.548;7.222;2023-04-01T17:36:12;20.50;83.50
2957;DHT22;1488;51.548;7.222;2023-04-01T17:41:54;20.50;84.00
2957;DHT22;1488;51.548;7.222;2023-04-01T17:44:37;20.50;83.80
2957;DHT22;1488;51.548;7.222;2023-04-01T17:47:19;20.50;83.60
2957;DHT22;1488;51.548;7.222;2023-04-01T17:49:55;20.50;83.60
2957;DHT22;1488;51.548;7.222;2023-04-01T17:52:27;20.50;82.70
2957;DHT22;1488;51.548;7.222;2023-04-01T17:55:12;20.50;82.40
2957;DHT22;1488;51.548;7.222;2023-04-01T17:57:46;20.50;82.30
2957;DHT22;1488;51.548;7.222;2023-04-01T18:00:24;20.50;82.40
2957;DHT22;1488;51.548;7.222;2023-04-01T18:03:04;20.50;82.40
2957;DHT22;1488;51.548;7.222;2023-04-01T18:05:52;20.50;82.90
2957;DHT22;1488;51.548;7.222;2023-04-01T18:08:43;20.50;82.90
2957;DHT22;1488;51.548;7.222;2023-04-01T18:11:21;20.50;83.30
2957;DHT22;1488;51.548;7.222;2023-04-01T18:16:57;20.50;83.70
2957;DHT22;1488;51.548;7.222;2023-04-01T18:19:32;20.40;83.40
2957;DHT22;1488;51.548;7.222;2023-04-01T18:22:15;20.50;83.70
2957;DHT22;1488;51.548;7.222;2023-04-01T18:24:47;20.50;84.00
2957;DHT22;1488;51.548;7.222;2023-04-01T18:27:27;20.50;83.40
2957;DHT22;1488;51.548;7.222;2023-04-01T18:30:00;20.40;82.60
2957;DHT22;1488;51.548;7.222;2023-04-01T18:32:35;20.40;82.90
2957;DHT22;1488;51.548;7.222;2023-04-01T18:35:16;20.50;83.90
2957;DHT22;1488;51.548;7.222;2023-04-01T18:37:47;20.50;83.30
2957;DHT22;1488;51.548;7.222;2023-04-01T18:40:21;20.50;83.00
2957;DHT22;1488;51.548;7.222;2023-04-01T18:42:58;20.50;83.30
2957;DHT22;1488;51.548;7.222;2023-04-01T18:45:28;20.50;83.60
2957;DHT22;1488;51.548;7.222;2023-04-01T18:48:08;20.50;83.40
2957;DHT22;1488;51.548;7.222;2023-04-01T18:50:40;20.50;83.80
2957;DHT22;1488;51.548;7.222;2023-04-01T18:53:15;20.50;83.80
2957;DHT22;1488;51.548;7.222;2023-04-01T18:55:47;20.50;83.60
2957;DHT22;1488;51.548;7.222;2023-04-01T18:58:25;20.50;83.60
2957;DHT22;1488;51.548;7.222;2023-04-01T19:01:17;20.50;83.60
2957;DHT22;1488;51.548;7.222;2023-04-01T19:03:58;20.50;83.50
2957;DHT22;1488;51.548;7.222;2023-04-01T19:06:30;20.50;83.20
2957;DHT22;1488;51.548;7.222;2023-04-01T19:09:15;20.50;82.70
2957;DHT22;1488;51.548;7.222;2023-04-01T19:11:47;20.50;82.40
2957;DHT22;1488;51.548;7.222;2023-04-01T19:14:22;20.50;82.50
2957;DHT22;1488;51.548;7.222;2023-04-01T19:16:58;20.50;82.50
2957;DHT22;1488;51.548;7.222;2023-04-01T19:19:35;20.50;82.90
2957;DHT22;1488;51.548;7.222;2023-04-01T19:22:14;20.50;83.30
2957;DHT22;1488;51.548;7.222;2023-04-01T19:25:07;20.50;83.50
2957;DHT22;1488;51.548;7.222;2023-04-01T19:27:42;20.50;83.80
2957;DHT22;1488;51.548;7.222;2023-04-01T19:30:25;20.50;84.10
2957;DHT22;1488;51.548;7.222;2023-04-01T19:33:01;20.50;84.30
2957;DHT22;1488;51.548;7.222;2023-04-01T19:35:37;20.50;84.80
2957;DHT22;1488;51.548;7.222;2023-04-01T19:38:14;20.50;84.70
2957;DHT22;1488;51.548;7.222;2023-04-01T19:40:53;20.60;85.00
2957;DHT22;1488;51.548;7.222;2023-04-01T19:43:40;20.50;84.90
2957;DHT22;1488;51.548;7.222;2023-04-01T19:46:18;20.60;84.90
2957;DHT22;1488;51.548;7.222;2023-04-01T19:48:55;20.60;85.20
2957;DHT22;1488;51.548;7.222;2023-04-01T19:51:31;20.60;85.10
2957;DHT22;1488;51.548;7.222;2023-04-01T19:54:09;20.60;85.60
2957;DHT22;1488;51.548;7.222;2023-04-01T19:56:46;20.60;85.80
2957;DHT22;1488;51.548;7.222;2023-04-01T19:59:19;20.70;86.00
2957;DHT22;1488;51.548;7.222;2023-04-01T20:01:56;20.70;86.00
2957;DHT22;1488;51.548;7.222;2023-04-01T20:04:27;20.70;85.90
2957;DHT22;1488;51.548;7.222;2023-04-01T20:06:59;20.60;86.10
2957;DHT22;1488;51.548;7.222;2023-04-01T20:09:40;20.60;85.70
2957;DHT22;1488;51.548;7.222;2023-04-01T20:12:13;20.60;86.10
2957;DHT22;1488;51.548;7.222;2023-04-01T20:14:47;20.60;85.90
2957;DHT22;1488;51.548;7.222;2023-04-01T20:17:21;20.60;86.00
2957;DHT22;1488;51.548;7.222;2023-04-01T20:19:55;20.60;86.00
2957;DHT22;1488;51.548;7.222;2023-04-01T20:22:33;20.60;86.20
2957;DHT22;1488;51.548;7.222;2023-04-01T20:25:08;20.60;86.10
2957;DHT22;1488;51.548;7.222;2023-04-01T20:27:41;20.60;86.20
2957;DHT22;1488;51.548;7.222;2023-04-01T20:33:34;20.60;86.30
2957;DHT22;1488;51.548;7.222;2023-04-01T20:36:13;20.60;86.30
2957;DHT22;1488;51.548;7.222;2023-04-01T20:41:49;20.50;86.10
2957;DHT22;1488;51.548;7.222;2023-04-01T20:44:29;20.50;86.10
2957;DHT22;1488;51.548;7.222;2023-04-01T20:47:09;20.50;86.00
2957;DHT22;1488;51.548;7.222;2023-04-01T20:49:41;20.50;86.10
2957;DHT22;1488;51.548;7.222;2023-04-01T20:52:21;20.50;86.10
2957;DHT22;1488;51.548;7.222;2023-04-01T20:55:14;20.50;86.20
2957;DHT22;1488;51.548;7.222;2023-04-01T20:57:47;20.60;86.50
2957;DHT22;1488;51.548;7.222;2023-04-01T21:00:28;20.50;86.50
2957;DHT22;1488;51.548;7.222;2023-04-01T21:03:11;20.50;86.60
2957;DHT22;1488;51.548;7.222;2023-04-01T21:05:57;20.50;86.20
2957;DHT22;1488;51.548;7.222;2023-04-01T21:08:31;20.50;87.00
2957;DHT22;1488;51.548;7.222;2023-04-01T21:11:04;20.50;86.90
2957;DHT22;1488;51.548;7.222;2023-04-01T21:13:50;20.50;87.00
2957;DHT22;1488;51.548;7.222;2023-04-01T21:16:27;20.60;86.60
2957;DHT22;1488;51.548;7.222;2023-04-01T21:19:15;20.60;86.30
2957;DHT22;1488;51.548;7.222;2023-04-01T21:22:14;20.60;86.50
2957;DHT22;1488;51.548;7.222;2023-04-01T21:25:17;20.60;86.60
2957;DHT22;1488;51.548;7.222;2023-04-01T21:28:00;20.60;86.40
2957;DHT22;1488;51.548;7.222;2023-04-01T21:30:40;20.60;86.90
2957;DHT22;1488;51.548;7.222;2023-04-01T21:36:14;20.60;87.80
2957;DHT22;1488;51.548;7.222;2023-04-01T21:38:59;20.50;87.70
2957;DHT22;1488;51.548;7.222;2023-04-01T21:41:44;20.50;87.80
2957;DHT22;1488;51.548;7.222;2023-04-01T21:44:35;20.50;88.00
2957;DHT22;1488;51.548;7.222;2023-04-01T21:47:49;20.50;88.00
2957;DHT22;1488;51.548;7.222;2023-04-01T21:50:54;20.50;87.90
2957;DHT22;1488;51.548;7.222;2023-04-01T21:53:51;20.50;88.00
2957;DHT22;1488;51.548;7.222;2023-04-01T21:56:30;20.50;87.80
2957;DHT22;1488;51.548;7.222;2023-04-01T22:02:35;20.50;87.80
2957;DHT22;1488;51.548;7.222;2023-04-01T22:05:10;20.50;88.00
2957;DHT22;1488;51.548;7.222;2023-04-01T22:07:44;20.50;87.80
2957;DHT22;1488;51.548;7.222;2023-04-01T22:10:19;20.50;87.60
2957;DHT22;1488;51.548;7.222;2023-04-01T22:12:52;20.50;87.80
2957;DHT22;1488;51.548;7.222;2023-04-01T22:15:25;20.50;87.70
2957;DHT22;1488;51.548;7.222;2023-04-01T22:18:04;20.50;87.60
2957;DHT22;1488;51.548;7.222;2023-04-01T22:20:38;20.50;87.70
2957;DHT22;1488;51.548;7.222;2023-04-01T22:23:22;20.50;87.90
2957;DHT22;1488;51.548;7.222;2023-04-01T22:25:58;20.50;87.80
2957;DHT22;1488;51.548;7.222;2023-04-01T22:28:30;20.50;87.90
2957;DHT22;1488;51.548;7.222;2023-04-01T22:31:00;20.40;87.60
2957;DHT22;1488;51.548;7.222;2023-04-01T22:33:32;20.40;87.60
2957;DHT22;1488;51.548;7.222;2023-04-01T22:36:12;20.40;88.20
2957;DHT22;1488;51.548;7.222;2023-04-01T22:38:51;20.40;87.50
2957;DHT22;1488;51.548;7.222;2023-04-01T22:41:30;20.50;87.30
2957;DHT22;1488;51.548;7.222;2023-04-01T22:43:58;20.40;87.40
2957;DHT22;1488;51.548;7.222;2023-04-01T22:46:52;20.40;87.10
2957;DHT22;1488;51.548;7.222;2023-04-01T22:49:23;20.40;87.10
2957;DHT22;1488;51.548;7.222;2023-04-01T22:51:55;20.40;87.30
2957;DHT22;1488;51.548;7.222;2023-04-01T22:54:25;20.40;87.40
2957;DHT22;1488;51.548;7.222;2023-04-01T22:56:59;20.40;87.60
2957;DHT22;1488;51.548;7.222;2023-04-01T22:59:33;20.40;87.60
2957;DHT22;1488;51.548;7.222;2023-04-01T23:02:04;20.40;87.70
2957;DHT22;1488;51.548;7.222;2023-04-01T23:04:37;20.40;87.50
2957;DHT22;1488;51.548;7.222;2023-04-01T23:07:19;20.40;88.10
2957;DHT22;1488;51.548;7.222;2023-04-01T23:09:51;20.30;87.80
2957;DHT22;1488;51.548;7.222;2023-04-01T23:12:21;20.30;87.80
2957;DHT22;1488;51.548;7.222;2023-04-01T23:14:51;20.30;87.80
2957;DHT22;1488;51.548;7.222;2023-04-01T23:17:34;20.30;88.30
2957;DHT22;1488;51.548;7.222;2023-04-01T23:20:11;20.30;88.30
2957;DHT22;1488;51.548;7.222;2023-04-01T23:22:49;20.30;87.90
2957;DHT22;1488;51.548;7.222;2023-04-01T23:25:30;20.30;87.80
2957;DHT22;1488;51.548;7.222;2023-04-01T23:28:19;20.30;88.10
2957;DHT22;1488;51.548;7.222;2023-04-01T23:30:50;20.30;87.90
2957;DHT22;1488;51.548;7.222;2023-04-01T23:33:23;20.50;88.70
2957;DHT22;1488;51.548;7.222;2023-04-01T23:35:54;20.30;88.20
2957;DHT22;1488;51.548;7.222;2023-04-01T23:38:23;20.20;87.90
2957;DHT22;1488;51.548;7.222;2023-04-01T23:40:52;20.20;86.60
2957;DHT22;1488;51.548;7.222;2023-04-01T23:43:25;20.30;88.00
2957;DHT22;1488;51.548;7.222;2023-04-01T23:45:53;20.20;87.60
2957;DHT22;1488;51.548;7.222;2023-04-01T23:48:30;20.20;87.50
2957;DHT22;1488;51.548;7.222;2023-04-01T23:50:59;20.30;87.60
2957;DHT22;1488;51.548;7.222;2023-04-01T23:53:29;20.20;87.40
2957;DHT22;1488;51.548;7.222;2023-04-01T23:55:57;20.20;87.70
2957;DHT22;1488;51.548;7.222;2023-04-01T23:58:27;20.20;87.50
